Latest Conditions
At L.F.Wade Int. Airport
Recorded at 1:55 pm
Mostly Cloudy
Temp.: 
29°C/84°F
Humidity: 
65%
Wind: 
SW 13KT
or 15mph
UV Index: 
12
Island Observations
 
Observations
Saturday, June 24, 2017

Observations are in local time and taken at least once an hour, or upon the start and end of specified events such as showers and thunderstorms.

Time Sky / Weather Wind Speed/Gusts Temp. R.H. Pressure
     knots (mph)  °C (°F)  %  mb / "Hg
 13:55 Mostly Cloudy  SW 13/0 (15/0) 29(84) 65 1022 / 30.18
 12:55 Mostly Cloudy  W 10/0 (12/0) 28(83) 72 1022 / 30.17
 11:55 Mostly Cloudy  WSW 9/0 (10/0) 28(83) 71 1022 / 30.17
 10:55 Mostly Cloudy  SW 8/0 (9/0) 28(82) 75 1022 / 30.17
 09:55 Mostly Cloudy  WSW 8/0 (9/0) 27(81) 76 1022 / 30.17
 08:55 Mostly Cloudy  W 8/0 (9/0) 27(81) 75 1022 / 30.17
 07:55 Mostly Cloudy  WSW 8/0 (9/0) 27(80) 79 1021 / 30.16
 06:55 Mostly Cloudy  WSW 8/0 (9/0) 26(79) 83 1021 / 30.14
 05:55 Mostly Cloudy  WSW 7/0 (8/0) 26(79) 80 1020 / 30.13
 04:55 Mostly Cloudy  SW 7/0 (8/0) 26(78) 82 1020 / 30.12
 03:55 Mostly Cloudy  W 8/0 (9/0) 26(79) 81 1020 / 30.12
 02:55 Mostly Cloudy  WSW 7/0 (8/0) 26(79) 81 1020 / 30.12
 01:55 Mostly Cloudy  W 7/0 (8/0) 26(79) 82 1020 / 30.13
 00:55 Mostly Cloudy  W 7/0 (8/0) 26(79) 81 1020 / 30.13
 23:55 Mostly Cloudy  WNW 7/0 (8/0) 26(79) 81 1021 / 30.14
 22:55 Mostly Cloudy  WNW 9/0 (10/0) 26(79) 81 1021 / 30.14
 21:55 Mostly Cloudy  WNW 11/0 (13/0) 26(79) 82 1020 / 30.13
 20:55 Mostly Cloudy  W 12/0 (14/0) 26(79) 83 1020 / 30.12
 19:55 Mostly Cloudy  WNW 12/0 (14/0) 26(79) 81 1020 / 30.12
 18:55 Mostly Cloudy  WNW 13/0 (15/0) 27(80) 79 1020 / 30.11
 17:55 Mostly Cloudy  W 15/0 (17/0) 27(81) 72 1020 / 30.11
 16:55 Mostly Cloudy  W 15/0 (17/0) 28(82) 73 1020 / 30.11
 15:55 Mostly Cloudy  W 14/0 (16/0) 28(82) 73 1020 / 30.12
 14:55 Mostly Cloudy  W 13/0 (15/0) 28(82) 72 1020 / 30.12
 13:55 Mostly Cloudy  W 13/0 (15/0) 28(82) 72 1020 / 30.12
 12:55 Mostly Cloudy  W 14/0 (16/0) 28(83) 72 1020 / 30.12
 11:55 Mostly Cloudy  W 13/0 (15/0) 28(83) 72 1020 / 30.13
 10:55 Mostly Cloudy  W 12/0 (14/0) 28(82) 73 1020 / 30.13
 09:55 Mostly Cloudy  W 11/0 (13/0) 28(82) 76 1020 / 30.12
 08:55 Mostly Cloudy  WNW 11/0 (13/0) 27(81) 77 1020 / 30.12
 07:55 Mostly Cloudy  WNW 10/0 (12/0) 26(79) 79 1019 / 30.10
 06:55 Mostly Cloudy Showers WNW 9/0 (10/0) 26(78) 80 1019 / 30.10
 05:55 Mostly Cloudy  WNW 10/0 (12/0) 26(78) 80 1019 / 30.09
 05:12 Mostly Cloudy  WNW 10/0 (12/0) 26(78) 82 1019 / 30.09
 04:55 Mostly Cloudy  WNW 10/0 (12/0) 26(79) 81 1019 / 30.09
 03:55 Mostly Cloudy  WNW 10/0 (12/0) 26(79) 81 1019 / 30.09
 02:55 Mostly Cloudy  WNW 11/0 (13/0) 26(79) 80 1020 / 30.11
 01:55 Mostly Cloudy  WNW 10/0 (12/0) 26(79) 80 1020 / 30.12
 00:55 Overcast  WNW 11/0 (13/0) 26(79) 78 1021 / 30.14
 23:55 Overcast  WNW 11/0 (13/0) 26(79) 79 1021 / 30.14
 22:55 Overcast  WNW 10/0 (12/0) 26(79) 79 1021 / 30.15
 21:55 Overcast  WNW 12/0 (14/0) 26(79) 77 1021 / 30.14
 20:55 Overcast  WNW 12/0 (14/0) 26(80) 78 1020 / 30.13
 19:55 Mostly Cloudy  WNW 11/0 (13/0) 27(80) 78 1021 / 30.14
 18:55 Mostly Cloudy  WNW 11/0 (13/0) 27(81) 76 1020 / 30.13
 17:55 Mostly Cloudy  WNW 13/0 (15/0) 28(82) 74 1021 / 30.14
 16:55 Mostly Cloudy  WNW 14/0 (16/0) 28(83) 73 1021 / 30.15
 15:55 Mostly Cloudy  WNW 13/0 (15/0) 28(82) 74 1021 / 30.15
 14:55 Mostly Cloudy  WNW 13/0 (15/0) 28(83) 70 1021 / 30.16
 13:55 Mostly Cloudy  W 14/0 (16/0) 28(83) 71 1022 / 30.17
 12:55 Mostly Cloudy  W 14/0 (16/0) 28(83) 70 1022 / 30.17
 11:55 Mostly Cloudy  W 13/0 (15/0) 28(83) 71 1022 / 30.19
 10:55 Mostly Cloudy  W 13/0 (15/0) 28(82) 73 1022 / 30.19
 09:55 Mostly Cloudy  W 12/0 (14/0) 28(82) 72 1022 / 30.19
 08:55 Mostly Cloudy  W 13/0 (15/0) 27(81) 74 1022 / 30.19
 07:55 Mostly Cloudy Showers W 11/0 (13/0) 26(80) 78 1022 / 30.18
 06:55 Mostly Cloudy  W 10/0 (12/0) 26(79) 80 1022 / 30.18
 05:55 Mostly Cloudy  WSW 9/0 (10/0) 26(78) 80 1022 / 30.17
 04:55 Mostly Cloudy  WSW 9/0 (10/0) 26(78) 81 1022 / 30.17
 03:55 Mostly Cloudy  W 9/0 (10/0) 26(79) 79 1022 / 30.18
 02:55 Mostly Cloudy  WSW 9/0 (10/0) 26(78) 81 1022 / 30.17
 01:55 Mostly Cloudy  SW 9/0 (10/0) 26(78) 81 1022 / 30.18
 01:20 Mostly Cloudy  WSW 7/0 (8/0) 26(79) 79 1023 / 30.20
 00:55 Mostly Cloudy  WSW 7/0 (8/0) 26(79) 78 1023 / 30.21
 23:55 Partly Cloudy  W 7/0 (8/0) 26(79) 77 1023 / 30.22
 22:55 Partly Cloudy  W 7/0 (8/0) 26(79) 76 1024 / 30.23
 22:35 Partly Cloudy  W 7/0 (8/0) 26(79) 76 1024 / 30.23
 22:04 Mostly Cloudy  W 8/0 (9/0) 26(79) 76 1024 / 30.23
 21:55 Mostly Cloudy  W 8/0 (9/0) 26(80) 76 1024 / 30.23
 20:55 Partly Cloudy  W 9/0 (10/0) 26(80) 76 1023 / 30.22
 19:55 Partly Cloudy  W 10/0 (12/0) 27(80) 73 1023 / 30.22
 18:55 Partly Cloudy  WNW 10/0 (12/0) 28(82) 69 1023 / 30.20
 17:55 Partly Cloudy  W 9/0 (10/0) 28(82) 70 1023 / 30.20
 16:55 Partly Cloudy  W 10/0 (12/0) 28(83) 68 1023 / 30.21
 15:55 Mostly Cloudy Showers W 8/0 (9/0) 28(83) 67 1023 / 30.22
 15:42 Mostly Cloudy Showers W 9/0 (10/0) 28(83) 69 1023 / 30.22
 14:55 Mostly Cloudy Showers SW 11/0 (13/0) 28(82) 74 1024 / 30.23
 14:36 Mostly Cloudy Showers SW 11/0 (13/0) 27(81) 77 1024 / 30.23
 14:22 Mostly Cloudy Showers SW 11/0 (13/0) 26(80) 81 1024 / 30.23
 14:11 Mostly Cloudy Showers SW 11/0 (13/0) 27(81) 75 1024 / 30.23
 13:55 Partly Cloudy  SW 10/0 (12/0) 28(82) 68 1024 / 30.23
 12:55 Few Clouds  SW 10/0 (12/0) 28(83) 70 1024 / 30.24
 11:55 Few Clouds  SW 10/0 (12/0) 28(83) 68 1024 / 30.24
 10:55 Partly Cloudy Showers SW 9/0 (10/0) 27(80) 77 1024 / 30.25
 09:55 Partly Cloudy Showers SW 8/0 (9/0) 28(82) 76 1024 / 30.25
 08:55 Partly Cloudy  SW 8/0 (9/0) 27(80) 80 1024 / 30.25
 07:55 Partly Cloudy  SW 6/0 (7/0) 26(79) 84 1024 / 30.25
 06:55 Few Clouds  S 5/0 (6/0) 25(77) 86 1024 / 30.24
 05:55 Few Clouds  S 5/0 (6/0) 25(77) 86 1024 / 30.24
 04:55 Partly Cloudy  S 6/0 (7/0) 25(77) 87 1024 / 30.23
 03:55 Partly Cloudy  S 7/0 (8/0) 25(77) 87 1024 / 30.23
 02:55 Partly Cloudy  S 5/0 (6/0) 25(77) 87 1024 / 30.25
 01:55 Partly Cloudy  S 5/0 (6/0) 25(78) 86 1025 / 30.26
 00:55 Partly Cloudy  S 5/0 (6/0) 26(78) 86 1025 / 30.28
 00:45 Partly Cloudy  S 5/0 (6/0) 26(78) 86 1025 / 30.28
 23:55 Mostly Cloudy  S 5/0 (6/0) 26(78) 86 1025 / 30.28
 22:55 Few Clouds  SSW 5/0 (6/0) 26(78) 83 1025 / 30.28
 21:55 Few Clouds  S 6/0 (7/0) 26(78) 84 1025 / 30.26
 20:55 Partly Cloudy  S 6/0 (7/0) 26(79) 83 1025 / 30.26
 19:55 Few Clouds  S 7/0 (8/0) 26(80) 80 1024 / 30.25
Observations from our AWOS sites are available here (password and username are both 'guest').